sensor_id;sensor_type;location;lat;lon;timestamp;pressure;altitude;pressure_sealevel;temperature;humidity
77793;BME280;66983;51.438;5.438;2024-01-27T00:02:19;103415.69;;;6.32;100.00
77793;BME280;66983;51.438;5.438;2024-01-27T00:04:45;103412.97;;;6.29;100.00
77793;BME280;66983;51.438;5.438;2024-01-27T00:07:10;103415.56;;;6.26;100.00
77793;BME280;66983;51.438;5.438;2024-01-27T00:09:36;103407.50;;;6.20;100.00
77793;BME280;66983;51.438;5.438;2024-01-27T00:12:01;103404.91;;;6.22;100.00
77793;BME280;66983;51.438;5.438;2024-01-27T00:14:27;103401.38;;;6.24;100.00
77793;BME280;66983;51.438;5.438;2024-01-27T00:16:53;103393.50;;;6.27;100.00
77793;BME280;66983;51.438;5.438;2024-01-27T00:19:18;103393.44;;;6.24;100.00
77793;BME280;66983;51.438;5.438;2024-01-27T00:21:44;103385.47;;;6.21;100.00
77793;BME280;66983;51.438;5.438;2024-01-27T00:24:10;103391.72;;;6.26;100.00
77793;BME280;66983;51.438;5.438;2024-01-27T00:26:35;103386.50;;;6.29;100.00
77793;BME280;66983;51.438;5.438;2024-01-27T00:29:01;103395.28;;;6.28;100.00
77793;BME280;66983;51.438;5.438;2024-01-27T00:31:26;103401.41;;;6.26;100.00
77793;BME280;66983;51.438;5.438;2024-01-27T00:33:52;103394.34;;;6.23;100.00
77793;BME280;66983;51.438;5.438;2024-01-27T00:36:17;103408.41;;;6.21;100.00
77793;BME280;66983;51.438;5.438;2024-01-27T00:38:44;103400.38;;;6.16;100.00
77793;BME280;66983;51.438;5.438;2024-01-27T00:41:15;103406.59;;;6.18;100.00
77793;BME280;66983;51.438;5.438;2024-01-27T00:43:41;103394.94;;;6.10;100.00
77793;BME280;66983;51.438;5.438;2024-01-27T00:46:06;103416.25;;;6.16;100.00
77793;BME280;66983;51.438;5.438;2024-01-27T00:48:32;103413.50;;;6.11;100.00
77793;BME280;66983;51.438;5.438;2024-01-27T00:50:58;103425.84;;;6.11;100.00
77793;BME280;66983;51.438;5.438;2024-01-27T00:53:23;103418.78;;;6.11;100.00
77793;BME280;66983;51.438;5.438;2024-01-27T00:55:49;103417.88;;;6.09;100.00
77793;BME280;66983;51.438;5.438;2024-01-27T00:58:16;103423.19;;;6.11;100.00
77793;BME280;66983;51.438;5.438;2024-01-27T01:00:41;103417.00;;;6.10;100.00
77793;BME280;66983;51.438;5.438;2024-01-27T01:03:07;103416.94;;;6.07;100.00
77793;BME280;66983;51.438;5.438;2024-01-27T01:05:32;103423.91;;;6.04;100.00
77793;BME280;66983;51.438;5.438;2024-01-27T01:07:58;103417.59;;;5.96;100.00
77793;BME280;66983;51.438;5.438;2024-01-27T01:10:23;103422.81;;;5.93;100.00
77793;BME280;66983;51.438;5.438;2024-01-27T01:12:49;103428.97;;;5.92;100.00
77793;BME280;66983;51.438;5.438;2024-01-27T01:15:15;103426.31;;;5.92;100.00
77793;BME280;66983;51.438;5.438;2024-01-27T01:17:41;103426.97;;;5.83;100.00
77793;BME280;66983;51.438;5.438;2024-01-27T01:20:07;103428.72;;;5.83;100.00
77793;BME280;66983;51.438;5.438;2024-01-27T01:22:33;103430.41;;;5.79;100.00
77793;BME280;66983;51.438;5.438;2024-01-27T01:24:58;103429.47;;;5.77;100.00
77793;BME280;66983;51.438;5.438;2024-01-27T01:27:24;103428.59;;;5.78;100.00
77793;BME280;66983;51.438;5.438;2024-01-27T01:29:49;103422.34;;;5.74;100.00
77793;BME280;66983;51.438;5.438;2024-01-27T01:32:15;103434.66;;;5.72;100.00
77793;BME280;66983;51.438;5.438;2024-01-27T01:34:41;103423.16;;;5.70;100.00
77793;BME280;66983;51.438;5.438;2024-01-27T01:37:06;103426.63;;;5.68;100.00
77793;BME280;66983;51.438;5.438;2024-01-27T01:39:32;103418.56;;;5.62;100.00
77793;BME280;66983;51.438;5.438;2024-01-27T01:41:57;103427.16;;;5.53;100.00
77793;BME280;66983;51.438;5.438;2024-01-27T01:44:29;103424.34;;;5.47;100.00
77793;BME280;66983;51.438;5.438;2024-01-27T01:46:55;103426.84;;;5.39;100.00
77793;BME280;66983;51.438;5.438;2024-01-27T01:49:21;103426.84;;;5.39;100.00
77793;BME280;66983;51.438;5.438;2024-01-27T01:51:48;103414.22;;;5.28;100.00
77793;BME280;66983;51.438;5.438;2024-01-27T01:54:13;103427.63;;;5.35;100.00
77793;BME280;66983;51.438;5.438;2024-01-27T01:56:39;103439.09;;;5.36;100.00
77793;BME280;66983;51.438;5.438;2024-01-27T01:59:05;103440.91;;;5.38;100.00
77793;BME280;66983;51.438;5.438;2024-01-27T02:01:30;103445.16;;;5.32;100.00
77793;BME280;66983;51.438;5.438;2024-01-27T02:03:57;103438.91;;;5.28;100.00
77793;BME280;66983;51.438;5.438;2024-01-27T02:06:23;103451.19;;;5.26;100.00
77793;BME280;66983;51.438;5.438;2024-01-27T02:08:49;103437.03;;;5.24;100.00
77793;BME280;66983;51.438;5.438;2024-01-27T02:11:15;103427.47;;;5.29;100.00
77793;BME280;66983;51.438;5.438;2024-01-27T02:13:41;103430.19;;;5.32;100.00
77793;BME280;66983;51.438;5.438;2024-01-27T02:16:07;103422.28;;;5.34;100.00
77793;BME280;66983;51.438;5.438;2024-01-27T02:18:33;103441.66;;;5.33;100.00
77793;BME280;66983;51.438;5.438;2024-01-27T02:20:58;103439.84;;;5.30;100.00
77793;BME280;66983;51.438;5.438;2024-01-27T02:23:24;103443.28;;;5.28;100.00
77793;BME280;66983;51.438;5.438;2024-01-27T02:25:49;103443.97;;;5.19;100.00
77793;BME280;66983;51.438;5.438;2024-01-27T02:28:18;103459.78;;;5.18;100.00
77793;BME280;66983;51.438;5.438;2024-01-27T02:30:43;103446.63;;;5.21;100.00
77793;BME280;66983;51.438;5.438;2024-01-27T02:33:09;103449.28;;;5.21;100.00
77793;BME280;66983;51.438;5.438;2024-01-27T02:35:53;103458.94;;;5.19;100.00
77793;BME280;66983;51.438;5.438;2024-01-27T02:38:19;103448.38;;;5.20;100.00
77793;BME280;66983;51.438;5.438;2024-01-27T02:40:44;103439.63;;;5.23;100.00
77793;BME280;66983;51.438;5.438;2024-01-27T02:43:10;103447.59;;;5.24;100.00
77793;BME280;66983;51.438;5.438;2024-01-27T02:45:35;103448.50;;;5.25;100.00
77793;BME280;66983;51.438;5.438;2024-01-27T02:48:01;103444.03;;;5.22;100.00
77793;BME280;66983;51.438;5.438;2024-01-27T02:50:26;103436.94;;;5.20;100.00
77793;BME280;66983;51.438;5.438;2024-01-27T02:52:52;103446.53;;;5.16;100.00
77793;BME280;66983;51.438;5.438;2024-01-27T02:55:18;103440.22;;;5.11;100.00
77793;BME280;66983;51.438;5.438;2024-01-27T02:57:43;103443.97;;;5.21;100.00
77793;BME280;66983;51.438;5.438;2024-01-27T03:00:09;103439.59;;;5.20;100.00
77793;BME280;66983;51.438;5.438;2024-01-27T03:02:35;103440.44;;;5.20;100.00
77793;BME280;66983;51.438;5.438;2024-01-27T03:05:00;103430.63;;;5.15;100.00
77793;BME280;66983;51.438;5.438;2024-01-27T03:07:26;103438.69;;;5.19;100.00
77793;BME280;66983;51.438;5.438;2024-01-27T03:09:52;103442.22;;;5.20;100.00
77793;BME280;66983;51.438;5.438;2024-01-27T03:12:17;103422.47;;;5.05;100.00
77793;BME280;66983;51.438;5.438;2024-01-27T03:14:43;103442.84;;;5.09;100.00
77793;BME280;66983;51.438;5.438;2024-01-27T03:17:10;103447.16;;;5.06;100.00
77793;BME280;66983;51.438;5.438;2024-01-27T03:19:35;103441.00;;;5.07;100.00
77793;BME280;66983;51.438;5.438;2024-01-27T03:22:01;103450.72;;;5.08;100.00
77793;BME280;66983;51.438;5.438;2024-01-27T03:24:26;103453.44;;;5.11;100.00
77793;BME280;66983;51.438;5.438;2024-01-27T03:26:52;103448.97;;;5.08;100.00
77793;BME280;66983;51.438;5.438;2024-01-27T03:29:17;103452.47;;;5.07;100.00
77793;BME280;66983;51.438;5.438;2024-01-27T03:31:43;103452.53;;;5.09;100.00
77793;BME280;66983;51.438;5.438;2024-01-27T03:34:08;103447.28;;;5.10;100.00
77793;BME280;66983;51.438;5.438;2024-01-27T03:36:34;103434.66;;;5.00;100.00
77793;BME280;66983;51.438;5.438;2024-01-27T03:39:00;103459.47;;;5.05;100.00
77793;BME280;66983;51.438;5.438;2024-01-27T03:41:26;103451.50;;;5.04;100.00
77793;BME280;66983;51.438;5.438;2024-01-27T03:43:52;103449.66;;;5.01;100.00
77793;BME280;66983;51.438;5.438;2024-01-27T03:46:17;103455.97;;;5.06;100.00
77793;BME280;66983;51.438;5.438;2024-01-27T03:48:43;103459.47;;;5.05;100.00
77793;BME280;66983;51.438;5.438;2024-01-27T03:51:08;103455.06;;;5.06;100.00
77793;BME280;66983;51.438;5.438;2024-01-27T03:53:34;103446.28;;;5.07;100.00
77793;BME280;66983;51.438;5.438;2024-01-27T03:55:59;103447.16;;;5.06;100.00
77793;BME280;66983;51.438;5.438;2024-01-27T03:58:28;103449.84;;;5.07;100.00
77793;BME280;66983;51.438;5.438;2024-01-27T04:00:53;103444.66;;;5.12;100.00
77793;BME280;66983;51.438;5.438;2024-01-27T04:03:19;103453.44;;;5.11;100.00
77793;BME280;66983;51.438;5.438;2024-01-27T04:05:45;103456.06;;;5.09;100.00
77793;BME280;66983;51.438;5.438;2024-01-27T04:08:10;103452.47;;;5.07;100.00
77793;BME280;66983;51.438;5.438;2024-01-27T04:10:36;103458.66;;;5.08;100.00
77793;BME280;66983;51.438;5.438;2024-01-27T04:13:02;103458.53;;;5.03;100.00
77793;BME280;66983;51.438;5.438;2024-01-27T04:15:28;103457.59;;;5.01;100.00
77793;BME280;66983;51.438;5.438;2024-01-27T04:17:54;103456.53;;;4.95;100.00
77793;BME280;66983;51.438;5.438;2024-01-27T04:20:19;103455.50;;;4.88;100.00
77793;BME280;66983;51.438;5.438;2024-01-27T04:22:45;103462.44;;;4.85;100.00
77793;BME280;66983;51.438;5.438;2024-01-27T04:25:11;103452.78;;;4.85;100.00
77793;BME280;66983;51.438;5.438;2024-01-27T04:27:37;103443.75;;;4.77;100.00
77793;BME280;66983;51.438;5.438;2024-01-27T04:30:06;103461.41;;;4.80;100.00
77793;BME280;66983;51.438;5.438;2024-01-27T04:32:32;103461.22;;;4.72;100.00
77793;BME280;66983;51.438;5.438;2024-01-27T04:34:58;103466.66;;;4.78;100.00
77793;BME280;66983;51.438;5.438;2024-01-27T04:37:23;103466.84;;;4.84;100.00
77793;BME280;66983;51.438;5.438;2024-01-27T04:39:49;103472.22;;;4.87;100.00
77793;BME280;66983;51.438;5.438;2024-01-27T04:42:14;103461.59;;;4.86;100.00
77793;BME280;66983;51.438;5.438;2024-01-27T04:44:41;103468.72;;;4.88;100.00
77793;BME280;66983;51.438;5.438;2024-01-27T04:47:07;103465.13;;;4.86;100.00
77793;BME280;66983;51.438;5.438;2024-01-27T04:49:33;103462.50;;;4.86;100.00
77793;BME280;66983;51.438;5.438;2024-01-27T04:51:58;103436.50;;;4.70;100.00
77793;BME280;66983;51.438;5.438;2024-01-27T04:54:24;103458.91;;;4.84;100.00
77793;BME280;66983;51.438;5.438;2024-01-27T04:56:50;103442.78;;;4.75;100.00
77793;BME280;66983;51.438;5.438;2024-01-27T04:59:16;103448.25;;;4.81;100.00
77793;BME280;66983;51.438;5.438;2024-01-27T05:01:45;103460.78;;;4.88;100.00
77793;BME280;66983;51.438;5.438;2024-01-27T05:04:11;103460.69;;;4.85;100.00
77793;BME280;66983;51.438;5.438;2024-01-27T05:06:37;103463.28;;;4.84;100.00
77793;BME280;66983;51.438;5.438;2024-01-27T05:09:04;103458.88;;;4.83;100.00
77793;BME280;66983;51.438;5.438;2024-01-27T05:11:32;103458.81;;;4.81;100.00
77793;BME280;66983;51.438;5.438;2024-01-27T05:13:58;103456.19;;;4.81;100.00
77793;BME280;66983;51.438;5.438;2024-01-27T05:16:24;103459.84;;;4.86;100.00
77793;BME280;66983;51.438;5.438;2024-01-27T05:18:49;103458.13;;;4.88;100.00
77793;BME280;66983;51.438;5.438;2024-01-27T05:21:15;103461.69;;;4.89;100.00
77793;BME280;66983;51.438;5.438;2024-01-27T05:23:40;103468.72;;;4.88;100.00
77793;BME280;66983;51.438;5.438;2024-01-27T05:26:06;103465.19;;;4.88;100.00
77793;BME280;66983;51.438;5.438;2024-01-27T05:28:32;103454.47;;;4.83;100.00
77793;BME280;66983;51.438;5.438;2024-01-27T05:31:17;103457.00;;;4.78;100.00
77793;BME280;66983;51.438;5.438;2024-01-27T05:33:42;103464.03;;;4.78;100.00
77793;BME280;66983;51.438;5.438;2024-01-27T05:36:08;103460.34;;;4.73;100.00
77793;BME280;66983;51.438;5.438;2024-01-27T05:38:33;103455.91;;;4.72;100.00
77793;BME280;66983;51.438;5.438;2024-01-27T05:41:03;103447.06;;;4.70;100.00
77793;BME280;66983;51.438;5.438;2024-01-27T05:43:28;103448.81;;;4.69;100.00
77793;BME280;66983;51.438;5.438;2024-01-27T05:45:54;103449.78;;;4.73;100.00
77793;BME280;66983;51.438;5.438;2024-01-27T05:48:20;103437.44;;;4.72;100.00
77793;BME280;66983;51.438;5.438;2024-01-27T05:50:55;103438.28;;;4.71;100.00
77793;BME280;66983;51.438;5.438;2024-01-27T05:53:25;103440.06;;;4.72;100.00
77793;BME280;66983;51.438;5.438;2024-01-27T05:55:51;103440.13;;;4.73;100.00
77793;BME280;66983;51.438;5.438;2024-01-27T05:58:17;103439.88;;;4.64;100.00
77793;BME280;66983;51.438;5.438;2024-01-27T06:00:43;103449.69;;;4.70;100.00
77793;BME280;66983;51.438;5.438;2024-01-27T06:03:12;103443.56;;;4.71;100.00
77793;BME280;66983;51.438;5.438;2024-01-27T06:05:38;103430.22;;;4.65;100.00
77793;BME280;66983;51.438;5.438;2024-01-27T06:08:06;103443.66;;;4.74;100.00
77793;BME280;66983;51.438;5.438;2024-01-27T06:10:32;103447.09;;;4.71;100.00
77793;BME280;66983;51.438;5.438;2024-01-27T06:12:58;103436.44;;;4.68;100.00
77793;BME280;66983;51.438;5.438;2024-01-27T06:15:23;103438.09;;;4.63;100.00
77793;BME280;66983;51.438;5.438;2024-01-27T06:17:49;103437.19;;;4.63;100.00
77793;BME280;66983;51.438;5.438;2024-01-27T06:20:15;103438.78;;;4.56;100.00
77793;BME280;66983;51.438;5.438;2024-01-27T06:22:44;103445.13;;;4.63;100.00
77793;BME280;66983;51.438;5.438;2024-01-27T06:25:09;103452.97;;;4.60;100.00
77793;BME280;66983;51.438;5.438;2024-01-27T06:27:36;103454.66;;;4.58;100.00
77793;BME280;66983;51.438;5.438;2024-01-27T06:30:04;103448.44;;;4.56;100.00
77793;BME280;66983;51.438;5.438;2024-01-27T06:32:30;103451.97;;;4.56;100.00
77793;BME280;66983;51.438;5.438;2024-01-27T06:34:55;103460.75;;;4.55;100.00
77793;BME280;66983;51.438;5.438;2024-01-27T06:37:21;103452.06;;;4.59;100.00
77793;BME280;66983;51.438;5.438;2024-01-27T06:39:46;103452.97;;;4.60;100.00
77793;BME280;66983;51.438;5.438;2024-01-27T06:42:12;103460.94;;;4.61;100.00
77793;BME280;66983;51.438;5.438;2024-01-27T06:44:37;103459.22;;;4.63;100.00
77793;BME280;66983;51.438;5.438;2024-01-27T06:47:03;103451.34;;;4.65;100.00
77793;BME280;66983;51.438;5.438;2024-01-27T06:49:28;103459.00;;;4.56;100.00
77793;BME280;66983;51.438;5.438;2024-01-27T06:51:54;103461.91;;;4.65;100.00
77793;BME280;66983;51.438;5.438;2024-01-27T06:54:19;103468.03;;;4.64;100.00
77793;BME280;66983;51.438;5.438;2024-01-27T06:56:45;103476.88;;;4.64;100.00
77793;BME280;66983;51.438;5.438;2024-01-27T06:59:10;103476.88;;;4.64;100.00
77793;BME280;66983;51.438;5.438;2024-01-27T07:01:36;103497.19;;;4.68;100.00
77793;BME280;66983;51.438;5.438;2024-01-27T07:04:01;103481.44;;;4.71;100.00
77793;BME280;66983;51.438;5.438;2024-01-27T07:06:27;103481.34;;;4.67;100.00
77793;BME280;66983;51.438;5.438;2024-01-27T07:08:52;103491.91;;;4.68;100.00
77793;BME280;66983;51.438;5.438;2024-01-27T07:11:18;103494.59;;;4.70;100.00
77793;BME280;66983;51.438;5.438;2024-01-27T07:13:43;103498.13;;;4.70;100.00
77793;BME280;66983;51.438;5.438;2024-01-27T07:16:09;103490.91;;;4.63;100.00
77793;BME280;66983;51.438;5.438;2024-01-27T07:18:35;103498.88;;;4.65;100.00
77793;BME280;66983;51.438;5.438;2024-01-27T07:21:01;103494.50;;;4.65;100.00
77793;BME280;66983;51.438;5.438;2024-01-27T07:23:27;103503.22;;;4.63;100.00
77793;BME280;66983;51.438;5.438;2024-01-27T07:25:53;103497.81;;;4.58;100.00
77793;BME280;66983;51.438;5.438;2024-01-27T07:28:19;103507.53;;;4.59;100.00
77793;BME280;66983;51.438;5.438;2024-01-27T07:30:45;103502.09;;;4.55;100.00
77793;BME280;66983;51.438;5.438;2024-01-27T07:33:10;103510.88;;;4.54;100.00
77793;BME280;66983;51.438;5.438;2024-01-27T07:35:36;103499.41;;;4.53;100.00
77793;BME280;66983;51.438;5.438;2024-01-27T07:38:01;103507.38;;;4.55;100.00
77793;BME280;66983;51.438;5.438;2024-01-27T07:40:27;103503.81;;;4.53;100.00
77793;BME280;66983;51.438;5.438;2024-01-27T07:42:52;103510.78;;;4.51;100.00
77793;BME280;66983;51.438;5.438;2024-01-27T07:45:18;103506.31;;;4.48;100.00
77793;BME280;66983;51.438;5.438;2024-01-27T07:47:44;103506.25;;;4.47;100.00
77793;BME280;66983;51.438;5.438;2024-01-27T07:50:09;103499.25;;;4.47;100.00
77793;BME280;66983;51.438;5.438;2024-01-27T07:52:35;103516.91;;;4.50;100.00
77793;BME280;66983;51.438;5.438;2024-01-27T07:55:01;103516.81;;;4.47;100.00
77793;BME280;66983;51.438;5.438;2024-01-27T07:57:28;103515.03;;;4.46;100.00
77793;BME280;66983;51.438;5.438;2024-01-27T07:59:53;103515.09;;;4.47;100.00
77793;BME280;66983;51.438;5.438;2024-01-27T08:02:19;103515.88;;;4.44;100.00
77793;BME280;66983;51.438;5.438;2024-01-27T08:04:44;103517.59;;;4.42;100.00
77793;BME280;66983;51.438;5.438;2024-01-27T08:07:10;103508.81;;;4.43;100.00
77793;BME280;66983;51.438;5.438;2024-01-27T08:09:36;103501.75;;;4.42;100.00
77793;BME280;66983;51.438;5.438;2024-01-27T08:12:03;103498.19;;;4.42;100.00
77793;BME280;66983;51.438;5.438;2024-01-27T08:14:29;103495.75;;;4.48;100.00
77793;BME280;66983;51.438;5.438;2024-01-27T08:16:58;103494.00;;;4.49;100.00
77793;BME280;66983;51.438;5.438;2024-01-27T08:19:24;103513.44;;;4.51;100.00
77793;BME280;66983;51.438;5.438;2024-01-27T08:21:49;103501.16;;;4.53;100.00
77793;BME280;66983;51.438;5.438;2024-01-27T08:24:15;103503.91;;;4.56;100.00
77793;BME280;66983;51.438;5.438;2024-01-27T08:26:41;103500.53;;;4.61;100.00
77793;BME280;66983;51.438;5.438;2024-01-27T08:29:08;103489.94;;;4.60;100.00
77793;BME280;66983;51.438;5.438;2024-01-27T08:31:34;103499.97;;;4.73;100.00
77793;BME280;66983;51.438;5.438;2024-01-27T08:33:59;103497.34;;;4.73;100.00
77793;BME280;66983;51.438;5.438;2024-01-27T08:36:25;103500.91;;;4.75;100.00
77793;BME280;66983;51.438;5.438;2024-01-27T08:38:50;103507.13;;;4.77;100.00
77793;BME280;66983;51.438;5.438;2024-01-27T08:41:17;103501.00;;;4.78;100.00
77793;BME280;66983;51.438;5.438;2024-01-27T08:43:43;103503.56;;;4.75;100.00
77793;BME280;66983;51.438;5.438;2024-01-27T08:46:09;103509.97;;;4.83;100.00
77793;BME280;66983;51.438;5.438;2024-01-27T08:48:38;103517.13;;;4.87;100.00
77793;BME280;66983;51.438;5.438;2024-01-27T08:51:04;103507.44;;;4.88;100.00
77793;BME280;66983;51.438;5.438;2024-01-27T08:53:29;103509.31;;;4.92;100.00
77793;BME280;66983;51.438;5.438;2024-01-27T08:55:55;103506.72;;;4.93;100.00
77793;BME280;66983;51.438;5.438;2024-01-27T08:58:20;103515.56;;;4.95;100.00
77793;BME280;66983;51.438;5.438;2024-01-27T09:00:46;103521.78;;;4.97;100.00
77793;BME280;66983;51.438;5.438;2024-01-27T09:03:11;103513.94;;;5.00;100.00
77793;BME280;66983;51.438;5.438;2024-01-27T09:05:39;103532.88;;;5.16;100.00
77793;BME280;66983;51.438;5.438;2024-01-27T09:08:07;103526.88;;;5.23;100.00
77793;BME280;66983;51.438;5.438;2024-01-27T09:10:33;103527.03;;;5.29;100.00
77793;BME280;66983;51.438;5.438;2024-01-27T09:12:58;103529.81;;;5.33;100.00
77793;BME280;66983;51.438;5.438;2024-01-27T09:15:24;103524.69;;;5.39;100.00
77793;BME280;66983;51.438;5.438;2024-01-27T09:17:49;103527.50;;;5.47;100.00
77793;BME280;66983;51.438;5.438;2024-01-27T09:20:15;103538.31;;;5.56;100.00
77793;BME280;66983;51.438;5.438;2024-01-27T09:22:40;103542.88;;;5.62;100.00
77793;BME280;66983;51.438;5.438;2024-01-27T09:25:07;103539.50;;;5.67;100.00
77793;BME280;66983;51.438;5.438;2024-01-27T09:27:33;103534.25;;;5.69;100.00
77793;BME280;66983;51.438;5.438;2024-01-27T09:29:59;103539.66;;;5.75;100.00
77793;BME280;66983;51.438;5.438;2024-01-27T09:32:25;103541.66;;;5.84;100.00
77793;BME280;66983;51.438;5.438;2024-01-27T09:34:50;103549.78;;;5.90;100.00
77793;BME280;66983;51.438;5.438;2024-01-27T09:37:19;103541.78;;;5.88;100.00
77793;BME280;66983;51.438;5.438;2024-01-27T09:39:44;103548.19;;;5.96;100.00
77793;BME280;66983;51.438;5.438;2024-01-27T09:42:13;103553.56;;;6.01;100.00
77793;BME280;66983;51.438;5.438;2024-01-27T09:44:43;103559.88;;;6.06;100.00
77793;BME280;66983;51.438;5.438;2024-01-27T09:47:13;103566.13;;;6.09;100.00
77793;BME280;66983;51.438;5.438;2024-01-27T09:49:42;103565.38;;;6.15;100.00
77793;BME280;66983;51.438;5.438;2024-01-27T09:52:08;103564.53;;;6.16;100.00
77793;BME280;66983;51.438;5.438;2024-01-27T09:54:34;103564.66;;;6.22;100.00
77793;BME280;66983;51.438;5.438;2024-01-27T09:57:01;103562.09;;;6.27;100.00
77793;BME280;66983;51.438;5.438;2024-01-27T09:59:27;103566.63;;;6.31;100.00
77793;BME280;66983;51.438;5.438;2024-01-27T10:01:56;103569.38;;;6.35;100.00
77793;BME280;66983;51.438;5.438;2024-01-27T10:04:24;103565.88;;;6.36;100.00
77793;BME280;66983;51.438;5.438;2024-01-27T10:06:51;103579.19;;;6.39;100.00
77793;BME280;66983;51.438;5.438;2024-01-27T10:09:17;103576.59;;;6.42;100.00
77793;BME280;66983;51.438;5.438;2024-01-27T10:11:46;103570.44;;;6.43;100.00
77793;BME280;66983;51.438;5.438;2024-01-27T10:14:14;103567.69;;;6.39;100.00
77793;BME280;66983;51.438;5.438;2024-01-27T10:16:44;103580.25;;;6.47;100.00
77793;BME280;66983;51.438;5.438;2024-01-27T10:19:18;103580.31;;;6.52;100.00
77793;BME280;66983;51.438;5.438;2024-01-27T10:21:45;103572.47;;;6.57;100.00
77793;BME280;66983;51.438;5.438;2024-01-27T10:24:11;103582.25;;;6.59;100.00
77793;BME280;66983;51.438;5.438;2024-01-27T10:26:37;103581.44;;;6.62;100.00
77793;BME280;66983;51.438;5.438;2024-01-27T10:29:03;103539.63;;;6.47;100.00
77793;BME280;66983;51.438;5.438;2024-01-27T10:31:30;103557.59;;;6.62;100.00
77793;BME280;66983;51.438;5.438;2024-01-27T10:33:57;103571.91;;;6.70;100.00
77793;BME280;66983;51.438;5.438;2024-01-27T10:36:24;103572.91;;;6.75;100.00
77793;BME280;66983;51.438;5.438;2024-01-27T10:38:51;103579.16;;;6.80;100.00
77793;BME280;66983;51.438;5.438;2024-01-27T10:41:22;103589.78;;;6.81;100.00
77793;BME280;66983;51.438;5.438;2024-01-27T10:43:53;103580.06;;;6.80;100.00
77793;BME280;66983;51.438;5.438;2024-01-27T10:46:20;103582.84;;;6.87;100.00
77793;BME280;66983;51.438;5.438;2024-01-27T10:48:53;103575.84;;;6.90;100.00
77793;BME280;66983;51.438;5.438;2024-01-27T10:51:31;103574.97;;;6.91;100.00
77793;BME280;66983;51.438;5.438;2024-01-27T10:54:03;103563.63;;;6.97;100.00
77793;BME280;66983;51.438;5.438;2024-01-27T10:56:31;103567.22;;;7.00;100.00
77793;BME280;66983;51.438;5.438;2024-01-27T10:58:58;103572.59;;;7.05;100.00
77793;BME280;66983;51.438;5.438;2024-01-27T11:01:26;103565.56;;;7.07;100.00
77793;BME280;66983;51.438;5.438;2024-01-27T11:03:54;103563.00;;;7.11;100.00
77793;BME280;66983;51.438;5.438;2024-01-27T11:06:22;103555.00;;;7.10;100.00
77793;BME280;66983;51.438;5.438;2024-01-27T11:08:49;103560.41;;;7.14;100.00
77793;BME280;66983;51.438;5.438;2024-01-27T11:11:16;103551.59;;;7.15;100.00
77793;BME280;66983;51.438;5.438;2024-01-27T11:13:43;103555.22;;;7.21;100.00
77793;BME280;66983;51.438;5.438;2024-01-27T11:16:18;103557.03;;;7.22;100.00
77793;BME280;66983;51.438;5.438;2024-01-27T11:18:44;103550.88;;;7.24;100.00
77793;BME280;66983;51.438;5.438;2024-01-27T11:21:17;103540.31;;;7.26;100.00
77793;BME280;66983;51.438;5.438;2024-01-27T11:23:43;103533.22;;;7.25;100.00
77793;BME280;66983;51.438;5.438;2024-01-27T11:26:16;103542.19;;;7.33;100.00
77793;BME280;66983;51.438;5.438;2024-01-27T11:28:42;103539.59;;;7.36;100.00
77793;BME280;66983;51.438;5.438;2024-01-27T11:31:08;103544.81;;;7.33;100.00
77793;BME280;66983;51.438;5.438;2024-01-27T11:33:44;103533.31;;;7.32;100.00
77793;BME280;66983;51.438;5.438;2024-01-27T11:36:27;103546.78;;;7.43;100.00
77793;BME280;66983;51.438;5.438;2024-01-27T11:38:53;103541.53;;;7.46;100.00
77793;BME280;66983;51.438;5.438;2024-01-27T11:41:26;103535.41;;;7.48;100.00
77793;BME280;66983;51.438;5.438;2024-01-27T11:43:57;103533.63;;;7.49;100.00
77793;BME280;66983;51.438;5.438;2024-01-27T11:46:23;103533.69;;;7.52;100.00
77793;BME280;66983;51.438;5.438;2024-01-27T11:48:49;103531.94;;;7.54;100.00
77793;BME280;66983;51.438;5.438;2024-01-27T11:51:14;103540.81;;;7.56;100.00
77793;BME280;66983;51.438;5.438;2024-01-27T11:53:40;103530.34;;;7.65;100.00
77793;BME280;66983;51.438;5.438;2024-01-27T11:56:06;103533.94;;;7.67;100.00
77793;BME280;66983;51.438;5.438;2024-01-27T11:58:32;103518.16;;;7.76;100.00
77793;BME280;66983;51.438;5.438;2024-01-27T12:00:58;103518.16;;;7.76;100.00
77793;BME280;66983;51.438;5.438;2024-01-27T12:03:25;103517.31;;;7.77;100.00
77793;BME280;66983;51.438;5.438;2024-01-27T12:05:51;103507.69;;;7.87;100.00
77793;BME280;66983;51.438;5.438;2024-01-27T12:08:17;103514.88;;;7.93;100.00
77793;BME280;66983;51.438;5.438;2024-01-27T12:10:43;103512.28;;;7.97;100.00
77793;BME280;66983;51.438;5.438;2024-01-27T12:13:09;103517.63;;;7.99;100.00
77793;BME280;66983;51.438;5.438;2024-01-27T12:15:35;103515.00;;;8.00;100.00
77793;BME280;66983;51.438;5.438;2024-01-27T12:18:01;103518.59;;;8.04;100.00
77793;BME280;66983;51.438;5.438;2024-01-27T12:20:29;103519.47;;;8.06;100.00
77793;BME280;66983;51.438;5.438;2024-01-27T12:23:04;103520.38;;;8.08;100.00
77793;BME280;66983;51.438;5.438;2024-01-27T12:25:31;103502.66;;;8.04;100.00
77793;BME280;66983;51.438;5.438;2024-01-27T12:27:56;103514.22;;;8.09;100.00
77793;BME280;66983;51.438;5.438;2024-01-27T12:30:26;103516.00;;;8.10;100.00
77793;BME280;66983;51.438;5.438;2024-01-27T12:32:52;103510.66;;;8.08;100.00
77793;BME280;66983;51.438;5.438;2024-01-27T12:35:18;103506.19;;;8.03;100.00
77793;BME280;66983;51.438;5.438;2024-01-27T12:37:44;103497.31;;;8.02;100.00
77793;BME280;66983;51.438;5.438;2024-01-27T12:40:20;103492.03;;;8.07;100.00
77793;BME280;66983;51.438;5.438;2024-01-27T12:42:46;103490.31;;;8.09;100.00
77793;BME280;66983;51.438;5.438;2024-01-27T12:45:12;103493.81;;;8.08;100.00
77793;BME280;66983;51.438;5.438;2024-01-27T12:47:39;103489.41;;;8.05;100.00